sensor_id;sensor_type;location;lat;lon;timestamp;P1;durP1;ratioP1;P2;durP2;ratioP2
34928;SDS011;21133;48.048;7.724;2022-10-30T00:00:03;8.73;;;3.93;;
34928;SDS011;21133;48.048;7.724;2022-10-30T00:02:29;6.90;;;3.90;;
34928;SDS011;21133;48.048;7.724;2022-10-30T00:04:55;12.03;;;3.73;;
34928;SDS011;21133;48.048;7.724;2022-10-30T00:07:21;9.37;;;4.17;;
34928;SDS011;21133;48.048;7.724;2022-10-30T00:09:47;7.27;;;5.00;;
34928;SDS011;21133;48.048;7.724;2022-10-30T00:12:13;8.53;;;4.30;;
34928;SDS011;21133;48.048;7.724;2022-10-30T00:14:39;11.50;;;4.40;;
34928;SDS011;21133;48.048;7.724;2022-10-30T00:17:05;13.20;;;3.90;;
34928;SDS011;21133;48.048;7.724;2022-10-30T00:19:31;5.87;;;4.07;;
34928;SDS011;21133;48.048;7.724;2022-10-30T00:21:57;7.13;;;4.47;;
34928;SDS011;21133;48.048;7.724;2022-10-30T00:24:23;10.10;;;4.50;;
34928;SDS011;21133;48.048;7.724;2022-10-30T00:26:49;8.27;;;4.60;;
34928;SDS011;21133;48.048;7.724;2022-10-30T00:29:15;7.47;;;5.17;;
34928;SDS011;21133;48.048;7.724;2022-10-30T00:31:41;13.53;;;4.63;;
34928;SDS011;21133;48.048;7.724;2022-10-30T00:34:07;17.20;;;4.43;;
34928;SDS011;21133;48.048;7.724;2022-10-30T00:36:33;8.10;;;4.93;;
34928;SDS011;21133;48.048;7.724;2022-10-30T00:38:59;16.77;;;4.80;;
34928;SDS011;21133;48.048;7.724;2022-10-30T00:41:24;7.60;;;4.57;;
34928;SDS011;21133;48.048;7.724;2022-10-30T00:43:51;9.00;;;4.63;;
34928;SDS011;21133;48.048;7.724;2022-10-30T00:46:24;17.87;;;5.17;;
34928;SDS011;21133;48.048;7.724;2022-10-30T00:49:12;11.63;;;4.80;;
34928;SDS011;21133;48.048;7.724;2022-10-30T00:51:38;9.40;;;4.60;;
34928;SDS011;21133;48.048;7.724;2022-10-30T00:54:06;21.80;;;4.43;;
34928;SDS011;21133;48.048;7.724;2022-10-30T00:56:32;8.00;;;4.20;;
34928;SDS011;21133;48.048;7.724;2022-10-30T00:59:04;9.17;;;3.80;;
34928;SDS011;21133;48.048;7.724;2022-10-30T01:01:32;9.60;;;4.00;;
34928;SDS011;21133;48.048;7.724;2022-10-30T01:03:59;16.60;;;5.40;;
34928;SDS011;21133;48.048;7.724;2022-10-30T01:06:27;11.90;;;3.97;;
34928;SDS011;21133;48.048;7.724;2022-10-30T01:08:54;7.20;;;4.97;;
34928;SDS011;21133;48.048;7.724;2022-10-30T01:11:20;12.10;;;4.80;;
34928;SDS011;21133;48.048;7.724;2022-10-30T01:13:47;16.47;;;5.17;;
34928;SDS011;21133;48.048;7.724;2022-10-30T01:19:11;11.27;;;4.80;;
34928;SDS011;21133;48.048;7.724;2022-10-30T01:21:43;5.37;;;4.20;;
34928;SDS011;21133;48.048;7.724;2022-10-30T01:27:23;4.57;;;4.17;;
34928;SDS011;21133;48.048;7.724;2022-10-30T01:29:39;12.23;;;3.70;;
34928;SDS011;21133;48.048;7.724;2022-10-30T01:34:41;4.83;;;3.77;;
34928;SDS011;21133;48.048;7.724;2022-10-30T01:37:09;10.00;;;3.97;;
34928;SDS011;21133;48.048;7.724;2022-10-30T01:39:38;10.83;;;4.07;;
34928;SDS011;21133;48.048;7.724;2022-10-30T01:44:50;11.63;;;3.87;;
34928;SDS011;21133;48.048;7.724;2022-10-30T01:47:26;8.70;;;3.93;;
34928;SDS011;21133;48.048;7.724;2022-10-30T01:49:59;17.80;;;4.13;;
34928;SDS011;21133;48.048;7.724;2022-10-30T02:02:15;5.20;;;3.00;;
34928;SDS011;21133;48.048;7.724;2022-10-30T02:04:41;13.47;;;3.33;;
34928;SDS011;21133;48.048;7.724;2022-10-30T02:07:08;27.03;;;3.77;;
34928;SDS011;21133;48.048;7.724;2022-10-30T02:09:35;6.07;;;3.70;;
34928;SDS011;21133;48.048;7.724;2022-10-30T02:12:01;15.30;;;5.20;;
34928;SDS011;21133;48.048;7.724;2022-10-30T02:14:29;8.00;;;4.90;;
34928;SDS011;21133;48.048;7.724;2022-10-30T02:16:56;9.33;;;4.77;;
34928;SDS011;21133;48.048;7.724;2022-10-30T02:19:23;11.27;;;4.20;;
34928;SDS011;21133;48.048;7.724;2022-10-30T02:21:49;7.60;;;5.10;;
34928;SDS011;21133;48.048;7.724;2022-10-30T02:24:15;9.67;;;4.30;;
34928;SDS011;21133;48.048;7.724;2022-10-30T02:26:41;4.67;;;3.93;;
34928;SDS011;21133;48.048;7.724;2022-10-30T02:29:07;8.50;;;4.60;;
34928;SDS011;21133;48.048;7.724;2022-10-30T02:31:33;12.50;;;4.33;;
34928;SDS011;21133;48.048;7.724;2022-10-30T02:34:00;11.63;;;3.57;;
34928;SDS011;21133;48.048;7.724;2022-10-30T02:36:26;9.93;;;4.43;;
34928;SDS011;21133;48.048;7.724;2022-10-30T02:38:52;10.30;;;3.47;;
34928;SDS011;21133;48.048;7.724;2022-10-30T02:41:19;7.10;;;3.70;;
34928;SDS011;21133;48.048;7.724;2022-10-30T02:43:45;8.73;;;5.70;;
34928;SDS011;21133;48.048;7.724;2022-10-30T02:46:11;8.17;;;4.30;;
34928;SDS011;21133;48.048;7.724;2022-10-30T02:48:37;11.33;;;4.97;;
34928;SDS011;21133;48.048;7.724;2022-10-30T02:51:03;9.83;;;5.37;;
34928;SDS011;21133;48.048;7.724;2022-10-30T02:53:29;8.00;;;4.53;;
34928;SDS011;21133;48.048;7.724;2022-10-30T02:55:55;10.97;;;4.80;;
34928;SDS011;21133;48.048;7.724;2022-10-30T02:58:21;7.00;;;4.53;;
34928;SDS011;21133;48.048;7.724;2022-10-30T03:00:47;8.57;;;4.83;;
34928;SDS011;21133;48.048;7.724;2022-10-30T03:03:13;15.23;;;4.27;;
34928;SDS011;21133;48.048;7.724;2022-10-30T03:05:39;14.90;;;4.77;;
34928;SDS011;21133;48.048;7.724;2022-10-30T03:08:05;6.17;;;4.20;;
34928;SDS011;21133;48.048;7.724;2022-10-30T03:10:31;4.67;;;3.57;;
34928;SDS011;21133;48.048;7.724;2022-10-30T03:12:57;17.23;;;4.20;;
34928;SDS011;21133;48.048;7.724;2022-10-30T03:15:23;3.80;;;3.60;;
34928;SDS011;21133;48.048;7.724;2022-10-30T03:17:49;11.43;;;4.27;;
34928;SDS011;21133;48.048;7.724;2022-10-30T03:20:16;6.00;;;3.73;;
34928;SDS011;21133;48.048;7.724;2022-10-30T03:22:42;9.60;;;4.30;;
34928;SDS011;21133;48.048;7.724;2022-10-30T03:25:08;9.53;;;3.63;;
34928;SDS011;21133;48.048;7.724;2022-10-30T03:27:34;3.87;;;3.60;;
34928;SDS011;21133;48.048;7.724;2022-10-30T03:30:00;6.00;;;3.80;;
34928;SDS011;21133;48.048;7.724;2022-10-30T03:32:26;4.70;;;3.27;;
34928;SDS011;21133;48.048;7.724;2022-10-30T03:34:52;10.10;;;3.87;;
34928;SDS011;21133;48.048;7.724;2022-10-30T03:37:18;8.03;;;4.70;;
34928;SDS011;21133;48.048;7.724;2022-10-30T03:39:44;7.93;;;4.27;;
34928;SDS011;21133;48.048;7.724;2022-10-30T03:42:10;11.73;;;3.40;;
34928;SDS011;21133;48.048;7.724;2022-10-30T03:44:36;7.07;;;3.73;;
34928;SDS011;21133;48.048;7.724;2022-10-30T03:47:02;9.57;;;3.37;;
34928;SDS011;21133;48.048;7.724;2022-10-30T03:49:28;4.77;;;2.60;;
34928;SDS011;21133;48.048;7.724;2022-10-30T03:51:54;4.27;;;3.10;;
34928;SDS011;21133;48.048;7.724;2022-10-30T03:54:20;6.47;;;3.30;;
34928;SDS011;21133;48.048;7.724;2022-10-30T03:56:46;6.00;;;3.80;;
34928;SDS011;21133;48.048;7.724;2022-10-30T03:59:12;9.63;;;3.20;;
34928;SDS011;21133;48.048;7.724;2022-10-30T04:01:38;9.83;;;3.63;;
34928;SDS011;21133;48.048;7.724;2022-10-30T04:04:04;5.60;;;3.27;;
34928;SDS011;21133;48.048;7.724;2022-10-30T04:06:30;6.20;;;3.23;;
34928;SDS011;21133;48.048;7.724;2022-10-30T04:08:56;6.70;;;3.10;;
34928;SDS011;21133;48.048;7.724;2022-10-30T04:11:22;4.27;;;3.40;;
34928;SDS011;21133;48.048;7.724;2022-10-30T04:13:47;5.53;;;3.63;;
34928;SDS011;21133;48.048;7.724;2022-10-30T04:16:13;10.50;;;3.40;;
34928;SDS011;21133;48.048;7.724;2022-10-30T04:18:39;4.63;;;3.13;;
34928;SDS011;21133;48.048;7.724;2022-10-30T04:21:05;8.07;;;2.87;;
34928;SDS011;21133;48.048;7.724;2022-10-30T04:23:31;2.87;;;2.57;;
34928;SDS011;21133;48.048;7.724;2022-10-30T04:25:58;5.60;;;3.70;;
34928;SDS011;21133;48.048;7.724;2022-10-30T04:28:25;7.63;;;2.73;;
34928;SDS011;21133;48.048;7.724;2022-10-30T04:30:51;13.43;;;3.90;;
34928;SDS011;21133;48.048;7.724;2022-10-30T04:33:17;3.90;;;3.50;;
34928;SDS011;21133;48.048;7.724;2022-10-30T04:35:43;11.90;;;3.50;;
34928;SDS011;21133;48.048;7.724;2022-10-30T04:38:10;9.13;;;3.70;;
34928;SDS011;21133;48.048;7.724;2022-10-30T04:40:37;20.97;;;5.13;;
34928;SDS011;21133;48.048;7.724;2022-10-30T04:43:04;8.97;;;4.27;;
34928;SDS011;21133;48.048;7.724;2022-10-30T04:45:31;9.77;;;4.20;;
34928;SDS011;21133;48.048;7.724;2022-10-30T04:48:11;13.00;;;3.80;;
34928;SDS011;21133;48.048;7.724;2022-10-30T04:50:37;10.07;;;3.73;;
34928;SDS011;21133;48.048;7.724;2022-10-30T04:53:04;8.00;;;4.53;;
34928;SDS011;21133;48.048;7.724;2022-10-30T04:55:30;8.73;;;4.60;;
34928;SDS011;21133;48.048;7.724;2022-10-30T04:57:57;9.87;;;6.70;;
34928;SDS011;21133;48.048;7.724;2022-10-30T05:00:23;9.43;;;4.60;;
34928;SDS011;21133;48.048;7.724;2022-10-30T05:02:49;7.03;;;3.77;;
34928;SDS011;21133;48.048;7.724;2022-10-30T05:05:15;4.47;;;4.03;;
34928;SDS011;21133;48.048;7.724;2022-10-30T05:07:41;12.70;;;4.07;;
34928;SDS011;21133;48.048;7.724;2022-10-30T05:10:10;9.90;;;5.10;;
34928;SDS011;21133;48.048;7.724;2022-10-30T05:12:38;11.63;;;4.97;;
34928;SDS011;21133;48.048;7.724;2022-10-30T05:15:04;13.73;;;4.40;;
34928;SDS011;21133;48.048;7.724;2022-10-30T05:17:30;21.93;;;9.30;;
34928;SDS011;21133;48.048;7.724;2022-10-30T05:19:56;31.03;;;12.57;;
34928;SDS011;21133;48.048;7.724;2022-10-30T05:22:22;26.53;;;11.40;;
34928;SDS011;21133;48.048;7.724;2022-10-30T05:24:48;21.00;;;11.17;;
34928;SDS011;21133;48.048;7.724;2022-10-30T05:27:14;3.73;;;3.43;;
34928;SDS011;21133;48.048;7.724;2022-10-30T05:29:40;10.40;;;3.23;;
34928;SDS011;21133;48.048;7.724;2022-10-30T05:32:06;4.30;;;3.00;;
34928;SDS011;21133;48.048;7.724;2022-10-30T05:34:32;6.67;;;3.17;;
34928;SDS011;21133;48.048;7.724;2022-10-30T05:36:58;5.77;;;2.87;;
34928;SDS011;21133;48.048;7.724;2022-10-30T05:39:25;4.23;;;2.97;;
34928;SDS011;21133;48.048;7.724;2022-10-30T05:41:51;5.13;;;3.23;;
34928;SDS011;21133;48.048;7.724;2022-10-30T05:44:17;3.00;;;2.80;;
34928;SDS011;21133;48.048;7.724;2022-10-30T05:46:44;10.90;;;3.13;;
34928;SDS011;21133;48.048;7.724;2022-10-30T05:49:10;3.93;;;2.90;;
34928;SDS011;21133;48.048;7.724;2022-10-30T05:51:35;6.53;;;3.37;;
34928;SDS011;21133;48.048;7.724;2022-10-30T05:54:04;5.23;;;3.70;;
34928;SDS011;21133;48.048;7.724;2022-10-30T05:56:30;7.30;;;3.57;;
34928;SDS011;21133;48.048;7.724;2022-10-30T05:58:56;7.90;;;2.87;;
34928;SDS011;21133;48.048;7.724;2022-10-30T06:01:23;8.33;;;2.83;;
34928;SDS011;21133;48.048;7.724;2022-10-30T06:03:49;6.10;;;3.60;;
34928;SDS011;21133;48.048;7.724;2022-10-30T06:06:15;4.20;;;2.40;;
34928;SDS011;21133;48.048;7.724;2022-10-30T06:08:41;4.83;;;2.87;;
34928;SDS011;21133;48.048;7.724;2022-10-30T06:11:07;3.20;;;3.00;;
34928;SDS011;21133;48.048;7.724;2022-10-30T06:13:33;5.77;;;2.80;;
34928;SDS011;21133;48.048;7.724;2022-10-30T06:15:59;3.10;;;2.90;;
34928;SDS011;21133;48.048;7.724;2022-10-30T06:18:25;8.80;;;3.30;;
34928;SDS011;21133;48.048;7.724;2022-10-30T06:20:50;3.57;;;2.90;;
34928;SDS011;21133;48.048;7.724;2022-10-30T06:23:16;5.77;;;2.87;;
34928;SDS011;21133;48.048;7.724;2022-10-30T06:25:42;3.10;;;2.87;;
34928;SDS011;21133;48.048;7.724;2022-10-30T06:28:09;5.10;;;2.80;;
34928;SDS011;21133;48.048;7.724;2022-10-30T06:30:35;10.27;;;4.20;;
34928;SDS011;21133;48.048;7.724;2022-10-30T06:33:02;4.20;;;3.73;;
34928;SDS011;21133;48.048;7.724;2022-10-30T06:35:29;4.70;;;2.90;;
34928;SDS011;21133;48.048;7.724;2022-10-30T06:37:55;2.23;;;2.23;;
34928;SDS011;21133;48.048;7.724;2022-10-30T06:40:24;4.70;;;2.90;;
34928;SDS011;21133;48.048;7.724;2022-10-30T06:42:50;5.37;;;3.53;;
34928;SDS011;21133;48.048;7.724;2022-10-30T06:45:17;8.93;;;4.30;;
34928;SDS011;21133;48.048;7.724;2022-10-30T06:47:44;4.33;;;3.87;;
34928;SDS011;21133;48.048;7.724;2022-10-30T06:50:11;7.53;;;4.27;;
34928;SDS011;21133;48.048;7.724;2022-10-30T06:52:37;6.47;;;4.30;;
34928;SDS011;21133;48.048;7.724;2022-10-30T06:55:03;4.80;;;3.70;;
34928;SDS011;21133;48.048;7.724;2022-10-30T06:57:29;7.83;;;4.17;;
34928;SDS011;21133;48.048;7.724;2022-10-30T06:59:55;14.63;;;3.87;;
34928;SDS011;21133;48.048;7.724;2022-10-30T07:02:21;5.53;;;3.30;;
34928;SDS011;21133;48.048;7.724;2022-10-30T07:04:47;9.80;;;3.50;;
34928;SDS011;21133;48.048;7.724;2022-10-30T07:07:13;6.10;;;3.40;;
34928;SDS011;21133;48.048;7.724;2022-10-30T07:09:40;3.80;;;3.50;;
34928;SDS011;21133;48.048;7.724;2022-10-30T07:12:06;4.50;;;3.90;;
34928;SDS011;21133;48.048;7.724;2022-10-30T07:14:33;4.90;;;4.50;;
34928;SDS011;21133;48.048;7.724;2022-10-30T07:16:59;8.53;;;3.67;;
34928;SDS011;21133;48.048;7.724;2022-10-30T07:19:25;4.37;;;4.00;;
34928;SDS011;21133;48.048;7.724;2022-10-30T07:21:51;13.67;;;4.23;;
34928;SDS011;21133;48.048;7.724;2022-10-30T07:24:17;8.03;;;3.13;;
34928;SDS011;21133;48.048;7.724;2022-10-30T07:26:43;6.80;;;4.60;;
34928;SDS011;21133;48.048;7.724;2022-10-30T07:29:09;7.23;;;5.73;;
34928;SDS011;21133;48.048;7.724;2022-10-30T07:31:35;8.43;;;4.60;;
34928;SDS011;21133;48.048;7.724;2022-10-30T07:34:01;5.90;;;4.67;;
34928;SDS011;21133;48.048;7.724;2022-10-30T07:36:27;12.20;;;5.00;;
34928;SDS011;21133;48.048;7.724;2022-10-30T07:38:53;6.00;;;4.30;;
34928;SDS011;21133;48.048;7.724;2022-10-30T07:41:19;14.40;;;4.77;;
34928;SDS011;21133;48.048;7.724;2022-10-30T07:43:45;10.83;;;4.73;;
34928;SDS011;21133;48.048;7.724;2022-10-30T07:46:12;6.83;;;4.27;;
34928;SDS011;21133;48.048;7.724;2022-10-30T07:48:38;6.83;;;4.60;;
34928;SDS011;21133;48.048;7.724;2022-10-30T07:51:05;13.87;;;4.50;;
34928;SDS011;21133;48.048;7.724;2022-10-30T07:53:32;10.93;;;4.77;;
34928;SDS011;21133;48.048;7.724;2022-10-30T07:55:58;10.93;;;4.53;;
34928;SDS011;21133;48.048;7.724;2022-10-30T07:58:24;8.23;;;4.63;;
34928;SDS011;21133;48.048;7.724;2022-10-30T08:00:50;10.60;;;5.37;;
34928;SDS011;21133;48.048;7.724;2022-10-30T08:03:16;13.13;;;4.97;;
34928;SDS011;21133;48.048;7.724;2022-10-30T08:05:42;6.40;;;4.60;;
34928;SDS011;21133;48.048;7.724;2022-10-30T08:08:08;6.37;;;4.40;;
34928;SDS011;21133;48.048;7.724;2022-10-30T08:10:34;12.20;;;4.93;;
34928;SDS011;21133;48.048;7.724;2022-10-30T08:13:00;9.10;;;4.83;;
34928;SDS011;21133;48.048;7.724;2022-10-30T08:15:26;11.13;;;4.97;;
34928;SDS011;21133;48.048;7.724;2022-10-30T08:17:53;9.23;;;4.90;;
34928;SDS011;21133;48.048;7.724;2022-10-30T08:20:20;7.70;;;4.57;;
34928;SDS011;21133;48.048;7.724;2022-10-30T08:22:50;11.43;;;5.63;;
34928;SDS011;21133;48.048;7.724;2022-10-30T08:25:17;5.20;;;4.73;;
34928;SDS011;21133;48.048;7.724;2022-10-30T08:27:50;7.50;;;5.10;;
34928;SDS011;21133;48.048;7.724;2022-10-30T08:30:16;9.30;;;5.77;;
34928;SDS011;21133;48.048;7.724;2022-10-30T08:32:42;6.43;;;5.63;;
34928;SDS011;21133;48.048;7.724;2022-10-30T08:35:08;13.20;;;6.20;;
34928;SDS011;21133;48.048;7.724;2022-10-30T08:37:34;6.00;;;4.27;;
34928;SDS011;21133;48.048;7.724;2022-10-30T08:40:00;10.80;;;5.80;;
34928;SDS011;21133;48.048;7.724;2022-10-30T08:42:26;8.17;;;6.67;;
34928;SDS011;21133;48.048;7.724;2022-10-30T08:44:52;8.70;;;5.07;;
34928;SDS011;21133;48.048;7.724;2022-10-30T08:47:18;5.80;;;4.60;;
34928;SDS011;21133;48.048;7.724;2022-10-30T08:49:44;11.03;;;5.67;;
34928;SDS011;21133;48.048;7.724;2022-10-30T08:52:10;8.97;;;6.47;;
34928;SDS011;21133;48.048;7.724;2022-10-30T08:54:36;14.73;;;5.30;;
34928;SDS011;21133;48.048;7.724;2022-10-30T08:57:02;17.03;;;5.70;;
34928;SDS011;21133;48.048;7.724;2022-10-30T08:59:28;11.83;;;6.10;;
34928;SDS011;21133;48.048;7.724;2022-10-30T09:01:53;4.97;;;4.43;;
34928;SDS011;21133;48.048;7.724;2022-10-30T09:04:20;12.30;;;5.87;;
34928;SDS011;21133;48.048;7.724;2022-10-30T09:06:46;8.33;;;5.73;;
34928;SDS011;21133;48.048;7.724;2022-10-30T09:09:12;9.67;;;5.00;;
34928;SDS011;21133;48.048;7.724;2022-10-30T09:11:38;6.60;;;6.00;;
34928;SDS011;21133;48.048;7.724;2022-10-30T09:14:04;16.70;;;6.60;;
34928;SDS011;21133;48.048;7.724;2022-10-30T09:16:30;12.87;;;5.53;;
34928;SDS011;21133;48.048;7.724;2022-10-30T09:18:56;6.57;;;5.30;;
34928;SDS011;21133;48.048;7.724;2022-10-30T09:21:22;14.77;;;5.00;;
34928;SDS011;21133;48.048;7.724;2022-10-30T09:23:48;8.60;;;5.07;;
34928;SDS011;21133;48.048;7.724;2022-10-30T09:26:14;22.07;;;5.47;;
34928;SDS011;21133;48.048;7.724;2022-10-30T09:28:40;8.93;;;4.70;;
34928;SDS011;21133;48.048;7.724;2022-10-30T09:31:06;12.23;;;5.10;;
34928;SDS011;21133;48.048;7.724;2022-10-30T09:33:32;7.10;;;4.67;;
34928;SDS011;21133;48.048;7.724;2022-10-30T09:35:58;9.87;;;4.90;;
34928;SDS011;21133;48.048;7.724;2022-10-30T09:38:26;8.03;;;5.00;;
34928;SDS011;21133;48.048;7.724;2022-10-30T09:49:08;5.00;;;4.40;;
34928;SDS011;21133;48.048;7.724;2022-10-30T09:54:13;16.77;;;4.73;;
34928;SDS011;21133;48.048;7.724;2022-10-30T09:56:43;7.80;;;3.80;;
34928;SDS011;21133;48.048;7.724;2022-10-30T09:59:21;10.83;;;3.83;;
34928;SDS011;21133;48.048;7.724;2022-10-30T10:07:06;5.20;;;3.90;;
34928;SDS011;21133;48.048;7.724;2022-10-30T10:09:33;14.33;;;6.23;;
34928;SDS011;21133;48.048;7.724;2022-10-30T10:12:03;3.40;;;3.10;;
34928;SDS011;21133;48.048;7.724;2022-10-30T10:14:31;10.67;;;5.43;;
34928;SDS011;21133;48.048;7.724;2022-10-30T10:17:00;6.00;;;3.77;;
34928;SDS011;21133;48.048;7.724;2022-10-30T10:19:29;8.07;;;5.97;;
34928;SDS011;21133;48.048;7.724;2022-10-30T10:22:01;4.63;;;3.90;;
34928;SDS011;21133;48.048;7.724;2022-10-30T10:27:29;12.63;;;3.30;;
34928;SDS011;21133;48.048;7.724;2022-10-30T10:37:37;11.20;;;4.30;;
34928;SDS011;21133;48.048;7.724;2022-10-30T10:40:13;6.20;;;4.37;;
34928;SDS011;21133;48.048;7.724;2022-10-30T10:46:09;10.07;;;3.90;;
34928;SDS011;21133;48.048;7.724;2022-10-30T10:51:16;7.97;;;3.13;;
34928;SDS011;21133;48.048;7.724;2022-10-30T10:53:47;12.27;;;3.50;;
34928;SDS011;21133;48.048;7.724;2022-10-30T10:56:14;7.07;;;4.33;;
34928;SDS011;21133;48.048;7.724;2022-10-30T10:58:43;4.27;;;3.90;;
34928;SDS011;21133;48.048;7.724;2022-10-30T11:01:14;9.93;;;4.53;;
34928;SDS011;21133;48.048;7.724;2022-10-30T11:03:49;5.10;;;3.30;;
34928;SDS011;21133;48.048;7.724;2022-10-30T11:08:44;9.50;;;4.20;;
34928;SDS011;21133;48.048;7.724;2022-10-30T11:11:10;9.63;;;4.67;;
34928;SDS011;21133;48.048;7.724;2022-10-30T11:13:37;3.70;;;3.40;;
34928;SDS011;21133;48.048;7.724;2022-10-30T11:16:16;4.40;;;4.03;;
34928;SDS011;21133;48.048;7.724;2022-10-30T11:18:46;9.73;;;3.77;;
34928;SDS011;21133;48.048;7.724;2022-10-30T11:21:23;6.97;;;3.77;;
34928;SDS011;21133;48.048;7.724;2022-10-30T11:23:49;7.07;;;4.00;;
34928;SDS011;21133;48.048;7.724;2022-10-30T11:31:21;11.20;;;4.33;;
34928;SDS011;21133;48.048;7.724;2022-10-30T11:33:48;6.60;;;3.80;;
34928;SDS011;21133;48.048;7.724;2022-10-30T11:36:15;8.30;;;3.93;;
34928;SDS011;21133;48.048;7.724;2022-10-30T11:38:41;6.57;;;4.27;;
34928;SDS011;21133;48.048;7.724;2022-10-30T11:41:07;9.40;;;3.87;;
34928;SDS011;21133;48.048;7.724;2022-10-30T11:43:38;24.63;;;4.57;;
34928;SDS011;21133;48.048;7.724;2022-10-30T11:46:05;7.20;;;3.30;;
34928;SDS011;21133;48.048;7.724;2022-10-30T11:48:33;11.43;;;3.73;;
34928;SDS011;21133;48.048;7.724;2022-10-30T11:51:02;6.60;;;3.87;;
34928;SDS011;21133;48.048;7.724;2022-10-30T11:53:32;11.33;;;3.50;;
34928;SDS011;21133;48.048;7.724;2022-10-30T11:56:00;5.50;;;3.70;;
34928;SDS011;21133;48.048;7.724;2022-10-30T11:58:31;10.93;;;3.53;;
34928;SDS011;21133;48.048;7.724;2022-10-30T12:01:02;8.07;;;3.70;;
34928;SDS011;21133;48.048;7.724;2022-10-30T12:03:32;2.57;;;2.47;;
34928;SDS011;21133;48.048;7.724;2022-10-30T12:06:06;9.30;;;3.73;;
34928;SDS011;21133;48.048;7.724;2022-10-30T12:08:32;18.73;;;4.30;;
34928;SDS011;21133;48.048;7.724;2022-10-30T12:11:00;6.70;;;3.80;;
34928;SDS011;21133;48.048;7.724;2022-10-30T12:13:30;5.10;;;3.07;;
34928;SDS011;21133;48.048;7.724;2022-10-30T12:16:07;21.87;;;2.90;;
34928;SDS011;21133;48.048;7.724;2022-10-30T12:18:34;3.27;;;2.73;;
34928;SDS011;21133;48.048;7.724;2022-10-30T12:21:00;8.30;;;3.87;;
34928;SDS011;21133;48.048;7.724;2022-10-30T12:23:27;4.20;;;2.80;;
34928;SDS011;21133;48.048;7.724;2022-10-30T12:25:54;5.10;;;4.10;;
34928;SDS011;21133;48.048;7.724;2022-10-30T12:28:27;4.23;;;2.73;;
34928;SDS011;21133;48.048;7.724;2022-10-30T12:30:55;8.97;;;4.80;;
34928;SDS011;21133;48.048;7.724;2022-10-30T12:33:33;8.03;;;3.50;;
34928;SDS011;21133;48.048;7.724;2022-10-30T12:36:01;3.10;;;2.90;;
34928;SDS011;21133;48.048;7.724;2022-10-30T12:38:33;5.57;;;2.97;;
34928;SDS011;21133;48.048;7.724;2022-10-30T12:43:36;2.97;;;2.20;;
34928;SDS011;21133;48.048;7.724;2022-10-30T12:46:08;11.60;;;3.80;;
34928;SDS011;21133;48.048;7.724;2022-10-30T12:48:36;6.10;;;4.30;;
34928;SDS011;21133;48.048;7.724;2022-10-30T12:56:10;3.13;;;2.77;;
34928;SDS011;21133;48.048;7.724;2022-10-30T13:01:08;7.00;;;2.60;;
34928;SDS011;21133;48.048;7.724;2022-10-30T13:03:41;8.60;;;2.63;;
34928;SDS011;21133;48.048;7.724;2022-10-30T13:06:15;2.70;;;2.50;;
34928;SDS011;21133;48.048;7.724;2022-10-30T13:08:57;3.53;;;1.80;;
34928;SDS011;21133;48.048;7.724;2022-10-30T13:11:27;4.93;;;3.00;;
34928;SDS011;21133;48.048;7.724;2022-10-30T13:13:57;10.07;;;3.00;;
34928;SDS011;21133;48.048;7.724;2022-10-30T13:16:28;1.80;;;1.80;;
34928;SDS011;21133;48.048;7.724;2022-10-30T13:19:04;5.80;;;3.40;;
34928;SDS011;21133;48.048;7.724;2022-10-30T13:21:47;3.30;;;2.17;;
34928;SDS011;21133;48.048;7.724;2022-10-30T13:24:17;8.80;;;2.80;;
34928;SDS011;21133;48.048;7.724;2022-10-30T13:26:52;12.00;;;3.40;;
34928;SDS011;21133;48.048;7.724;2022-10-30T13:29:22;4.50;;;2.20;;
34928;SDS011;21133;48.048;7.724;2022-10-30T13:34:38;4.63;;;2.43;;
34928;SDS011;21133;48.048;7.724;2022-10-30T13:37:18;2.60;;;2.30;;
34928;SDS011;21133;48.048;7.724;2022-10-30T13:49:53;5.83;;;2.77;;
34928;SDS011;21133;48.048;7.724;2022-10-30T13:52:20;9.83;;;2.50;;
34928;SDS011;21133;48.048;7.724;2022-10-30T13:54:58;2.93;;;2.67;;
34928;SDS011;21133;48.048;7.724;2022-10-30T14:02:48;3.40;;;1.53;;
34928;SDS011;21133;48.048;7.724;2022-10-30T14:06:01;1.50;;;1.50;;
34928;SDS011;21133;48.048;7.724;2022-10-30T14:08:13;8.00;;;2.23;;
34928;SDS011;21133;48.048;7.724;2022-10-30T14:10:46;1.90;;;1.80;;
34928;SDS011;21133;48.048;7.724;2022-10-30T14:13:28;2.20;;;2.10;;
34928;SDS011;21133;48.048;7.724;2022-10-30T14:16:29;3.10;;;2.60;;
34928;SDS011;21133;48.048;7.724;2022-10-30T14:19:04;1.33;;;1.33;;
34928;SDS011;21133;48.048;7.724;2022-10-30T14:26:44;5.10;;;2.00;;
34928;SDS011;21133;48.048;7.724;2022-10-30T14:31:56;5.43;;;1.87;;
34928;SDS011;21133;48.048;7.724;2022-10-30T14:34:41;2.87;;;2.67;;
34928;SDS011;21133;48.048;7.724;2022-10-30T14:37:08;1.70;;;1.60;;
34928;SDS011;21133;48.048;7.724;2022-10-30T14:39:41;1.30;;;1.30;;
34928;SDS011;21133;48.048;7.724;2022-10-30T14:42:12;8.03;;;2.20;;
34928;SDS011;21133;48.048;7.724;2022-10-30T14:49:55;4.50;;;2.43;;
34928;SDS011;21133;48.048;7.724;2022-10-30T14:52:29;2.43;;;2.33;;
34928;SDS011;21133;48.048;7.724;2022-10-30T14:55:02;5.27;;;2.80;;
34928;SDS011;21133;48.048;7.724;2022-10-30T14:57:50;3.93;;;1.90;;
34928;SDS011;21133;48.048;7.724;2022-10-30T15:08:20;9.60;;;2.03;;
34928;SDS011;21133;48.048;7.724;2022-10-30T15:13:33;5.70;;;2.80;;
34928;SDS011;21133;48.048;7.724;2022-10-30T15:16:00;3.03;;;2.60;;
34928;SDS011;21133;48.048;7.724;2022-10-30T15:18:26;6.63;;;2.90;;
34928;SDS011;21133;48.048;7.724;2022-10-30T15:20:52;4.50;;;2.30;;
34928;SDS011;21133;48.048;7.724;2022-10-30T15:23:21;9.23;;;2.60;;
34928;SDS011;21133;48.048;7.724;2022-10-30T15:25:52;2.70;;;2.13;;
34928;SDS011;21133;48.048;7.724;2022-10-30T15:28:19;5.70;;;2.13;;
34928;SDS011;21133;48.048;7.724;2022-10-30T15:33:49;8.83;;;2.10;;
34928;SDS011;21133;48.048;7.724;2022-10-30T15:38:42;2.67;;;2.10;;
34928;SDS011;21133;48.048;7.724;2022-10-30T15:41:08;6.33;;;2.47;;
34928;SDS011;21133;48.048;7.724;2022-10-30T15:43:34;5.03;;;2.10;;
34928;SDS011;21133;48.048;7.724;2022-10-30T15:46:06;2.67;;;2.47;;
34928;SDS011;21133;48.048;7.724;2022-10-30T15:48:33;2.43;;;2.17;;
34928;SDS011;21133;48.048;7.724;2022-10-30T15:51:21;8.73;;;2.40;;
34928;SDS011;21133;48.048;7.724;2022-10-30T15:53:47;4.13;;;1.60;;
34928;SDS011;21133;48.048;7.724;2022-10-30T15:56:33;3.87;;;3.10;;
34928;SDS011;21133;48.048;7.724;2022-10-30T15:59:01;4.17;;;1.90;;
34928;SDS011;21133;48.048;7.724;2022-10-30T16:01:34;3.33;;;1.90;;
34928;SDS011;21133;48.048;7.724;2022-10-30T16:04:03;5.20;;;2.00;;
34928;SDS011;21133;48.048;7.724;2022-10-30T16:06:30;1.70;;;1.63;;
34928;SDS011;21133;48.048;7.724;2022-10-30T16:08:56;2.40;;;2.07;;
34928;SDS011;21133;48.048;7.724;2022-10-30T16:11:23;2.53;;;2.00;;
34928;SDS011;21133;48.048;7.724;2022-10-30T16:13:50;5.93;;;2.10;;
34928;SDS011;21133;48.048;7.724;2022-10-30T16:18:42;3.63;;;3.30;;
34928;SDS011;21133;48.048;7.724;2022-10-30T16:21:09;4.50;;;2.50;;
34928;SDS011;21133;48.048;7.724;2022-10-30T16:23:39;5.00;;;2.70;;
34928;SDS011;21133;48.048;7.724;2022-10-30T16:26:05;4.63;;;2.80;;
34928;SDS011;21133;48.048;7.724;2022-10-30T16:28:33;5.40;;;3.70;;
34928;SDS011;21133;48.048;7.724;2022-10-30T16:31:00;8.30;;;4.60;;
34928;SDS011;21133;48.048;7.724;2022-10-30T16:33:27;3.20;;;2.90;;
34928;SDS011;21133;48.048;7.724;2022-10-30T16:35:53;8.53;;;2.60;;
34928;SDS011;21133;48.048;7.724;2022-10-30T16:38:20;4.00;;;2.63;;
34928;SDS011;21133;48.048;7.724;2022-10-30T16:40:46;2.97;;;2.60;;
34928;SDS011;21133;48.048;7.724;2022-10-30T16:43:29;4.33;;;2.40;;
34928;SDS011;21133;48.048;7.724;2022-10-30T16:46:20;8.43;;;2.80;;
34928;SDS011;21133;48.048;7.724;2022-10-30T16:48:51;2.87;;;2.63;;